CZ-0032 weather

Hospital Heliport
Rakovník, Central Bohemian Region, Czechia

Public forecast

Using degrees Celsius for public forecast. Weather courtesy of forecast.io.

METAR (pilot weather report)

Closest report is Václav Havel Airport Prague, 20.9 nm (38.6 km) E. Retrieved 2019/03/22 00:00 UTC (9 minutes ago):

LKPR 220000Z 22005KT CAVOK 05/00 Q1032 NOSIG

TAF (pilot weather forecast)

Forecast is more than 6 hours old.

Closest forecast is Václav Havel Airport Prague, 20.9 nm (38.6 km) E. Retrieved 2019/03/21 18:06 UTC (6 hours ago):

TAF LKPR 211700Z 2118/2300 VRB02KT CAVOK BECMG 2210/2213 07007KT